sensor_id;sensor_type;location;lat;lon;timestamp;P1;durP1;ratioP1;P2;durP2;ratioP2
74421;SDS011;62856;51.446;8.360;2022-11-20T00:01:59;7.65;;;1.73;;
74421;SDS011;62856;51.446;8.360;2022-11-20T00:04:24;6.37;;;1.60;;
74421;SDS011;62856;51.446;8.360;2022-11-20T00:06:49;5.30;;;1.47;;
74421;SDS011;62856;51.446;8.360;2022-11-20T00:09:15;7.37;;;1.77;;
74421;SDS011;62856;51.446;8.360;2022-11-20T00:11:40;4.53;;;1.37;;
74421;SDS011;62856;51.446;8.360;2022-11-20T00:14:05;6.67;;;1.70;;
74421;SDS011;62856;51.446;8.360;2022-11-20T00:16:31;4.73;;;1.37;;
74421;SDS011;62856;51.446;8.360;2022-11-20T00:18:57;6.65;;;1.35;;
74421;SDS011;62856;51.446;8.360;2022-11-20T00:21:24;4.25;;;1.38;;
74421;SDS011;62856;51.446;8.360;2022-11-20T00:23:51;5.82;;;1.40;;
74421;SDS011;62856;51.446;8.360;2022-11-20T00:26:19;3.88;;;1.23;;
74421;SDS011;62856;51.446;8.360;2022-11-20T00:28:49;3.80;;;0.90;;
74421;SDS011;62856;51.446;8.360;2022-11-20T00:31:16;3.50;;;0.93;;
74421;SDS011;62856;51.446;8.360;2022-11-20T00:33:42;2.95;;;0.82;;
74421;SDS011;62856;51.446;8.360;2022-11-20T00:36:10;3.00;;;1.13;;
74421;SDS011;62856;51.446;8.360;2022-11-20T00:38:39;3.28;;;0.80;;
74421;SDS011;62856;51.446;8.360;2022-11-20T00:41:06;2.40;;;0.75;;
74421;SDS011;62856;51.446;8.360;2022-11-20T00:43:33;2.13;;;0.50;;
74421;SDS011;62856;51.446;8.360;2022-11-20T00:45:59;2.15;;;0.60;;
74421;SDS011;62856;51.446;8.360;2022-11-20T00:48:26;2.88;;;0.90;;
74421;SDS011;62856;51.446;8.360;2022-11-20T00:50:52;3.60;;;0.90;;
74421;SDS011;62856;51.446;8.360;2022-11-20T00:53:18;2.85;;;0.82;;
74421;SDS011;62856;51.446;8.360;2022-11-20T00:55:51;3.00;;;0.85;;
74421;SDS011;62856;51.446;8.360;2022-11-20T00:58:21;1.48;;;0.40;;
74421;SDS011;62856;51.446;8.360;2022-11-20T01:00:47;2.47;;;0.80;;
74421;SDS011;62856;51.446;8.360;2022-11-20T01:03:14;3.22;;;0.93;;
74421;SDS011;62856;51.446;8.360;2022-11-20T01:05:39;3.05;;;0.77;;
74421;SDS011;62856;51.446;8.360;2022-11-20T01:08:04;3.43;;;0.97;;
74421;SDS011;62856;51.446;8.360;2022-11-20T01:10:30;4.13;;;1.10;;
74421;SDS011;62856;51.446;8.360;2022-11-20T01:12:55;1.40;;;0.57;;
74421;SDS011;62856;51.446;8.360;2022-11-20T01:15:39;3.33;;;0.88;;
74421;SDS011;62856;51.446;8.360;2022-11-20T01:18:04;3.42;;;0.80;;
74421;SDS011;62856;51.446;8.360;2022-11-20T01:20:33;1.98;;;0.65;;
74421;SDS011;62856;51.446;8.360;2022-11-20T01:22:59;1.70;;;0.57;;
74421;SDS011;62856;51.446;8.360;2022-11-20T01:25:24;2.77;;;0.73;;
74421;SDS011;62856;51.446;8.360;2022-11-20T01:27:50;3.80;;;0.93;;
74421;SDS011;62856;51.446;8.360;2022-11-20T01:30:15;3.77;;;0.93;;
74421;SDS011;62856;51.446;8.360;2022-11-20T01:32:40;1.90;;;0.50;;
74421;SDS011;62856;51.446;8.360;2022-11-20T01:35:05;4.10;;;0.90;;
74421;SDS011;62856;51.446;8.360;2022-11-20T01:37:31;2.65;;;0.57;;
74421;SDS011;62856;51.446;8.360;2022-11-20T01:39:56;2.57;;;0.80;;
74421;SDS011;62856;51.446;8.360;2022-11-20T01:42:21;2.87;;;0.80;;
74421;SDS011;62856;51.446;8.360;2022-11-20T01:48:08;2.58;;;0.93;;
74421;SDS011;62856;51.446;8.360;2022-11-20T01:50:34;2.42;;;0.80;;
74421;SDS011;62856;51.446;8.360;2022-11-20T01:53:01;2.35;;;0.88;;
74421;SDS011;62856;51.446;8.360;2022-11-20T01:55:31;3.42;;;0.77;;
74421;SDS011;62856;51.446;8.360;2022-11-20T01:57:59;2.85;;;0.70;;
74421;SDS011;62856;51.446;8.360;2022-11-20T02:00:26;1.70;;;0.60;;
74421;SDS011;62856;51.446;8.360;2022-11-20T02:02:53;3.72;;;1.10;;
74421;SDS011;62856;51.446;8.360;2022-11-20T02:05:24;3.13;;;0.68;;
74421;SDS011;62856;51.446;8.360;2022-11-20T02:07:54;2.42;;;0.70;;
74421;SDS011;62856;51.446;8.360;2022-11-20T02:10:22;2.42;;;0.70;;
74421;SDS011;62856;51.446;8.360;2022-11-20T02:12:48;3.00;;;0.88;;
74421;SDS011;62856;51.446;8.360;2022-11-20T02:15:32;3.08;;;0.88;;
74421;SDS011;62856;51.446;8.360;2022-11-20T02:17:58;3.17;;;0.75;;
74421;SDS011;62856;51.446;8.360;2022-11-20T02:20:24;1.88;;;0.60;;
74421;SDS011;62856;51.446;8.360;2022-11-20T02:23:08;1.13;;;0.52;;
74421;SDS011;62856;51.446;8.360;2022-11-20T02:25:38;2.13;;;0.70;;
74421;SDS011;62856;51.446;8.360;2022-11-20T02:28:04;3.63;;;0.93;;
74421;SDS011;62856;51.446;8.360;2022-11-20T02:30:30;2.80;;;0.80;;
74421;SDS011;62856;51.446;8.360;2022-11-20T02:32:57;1.35;;;0.50;;
74421;SDS011;62856;51.446;8.360;2022-11-20T02:37:48;2.53;;;0.87;;
74421;SDS011;62856;51.446;8.360;2022-11-20T02:40:18;3.25;;;1.00;;
74421;SDS011;62856;51.446;8.360;2022-11-20T02:42:43;3.72;;;0.98;;
74421;SDS011;62856;51.446;8.360;2022-11-20T02:45:09;2.78;;;0.90;;
74421;SDS011;62856;51.446;8.360;2022-11-20T02:47:35;3.83;;;0.82;;
74421;SDS011;62856;51.446;8.360;2022-11-20T02:50:00;3.20;;;0.93;;
74421;SDS011;62856;51.446;8.360;2022-11-20T02:52:26;2.50;;;0.68;;
74421;SDS011;62856;51.446;8.360;2022-11-20T02:54:51;3.07;;;0.97;;
74421;SDS011;62856;51.446;8.360;2022-11-20T02:57:17;2.60;;;0.80;;
74421;SDS011;62856;51.446;8.360;2022-11-20T02:59:42;3.72;;;0.85;;
74421;SDS011;62856;51.446;8.360;2022-11-20T03:02:07;2.83;;;0.68;;
74421;SDS011;62856;51.446;8.360;2022-11-20T03:04:33;3.27;;;0.80;;
74421;SDS011;62856;51.446;8.360;2022-11-20T03:06:58;4.70;;;1.00;;
74421;SDS011;62856;51.446;8.360;2022-11-20T03:09:23;3.55;;;1.48;;
74421;SDS011;62856;51.446;8.360;2022-11-20T03:11:48;3.27;;;1.07;;
74421;SDS011;62856;51.446;8.360;2022-11-20T03:14:14;3.13;;;0.90;;
74421;SDS011;62856;51.446;8.360;2022-11-20T03:16:39;3.13;;;0.70;;
74421;SDS011;62856;51.446;8.360;2022-11-20T03:19:05;2.55;;;0.85;;
74421;SDS011;62856;51.446;8.360;2022-11-20T03:21:32;4.40;;;1.30;;
74421;SDS011;62856;51.446;8.360;2022-11-20T03:23:58;3.47;;;0.77;;
74421;SDS011;62856;51.446;8.360;2022-11-20T03:26:24;4.83;;;1.30;;
74421;SDS011;62856;51.446;8.360;2022-11-20T03:28:51;6.82;;;1.40;;
74421;SDS011;62856;51.446;8.360;2022-11-20T03:31:20;4.82;;;1.13;;
74421;SDS011;62856;51.446;8.360;2022-11-20T03:33:49;2.55;;;0.77;;
74421;SDS011;62856;51.446;8.360;2022-11-20T03:36:15;4.80;;;1.27;;
74421;SDS011;62856;51.446;8.360;2022-11-20T03:38:43;3.20;;;1.00;;
74421;SDS011;62856;51.446;8.360;2022-11-20T03:41:09;3.80;;;1.10;;
74421;SDS011;62856;51.446;8.360;2022-11-20T03:43:37;4.28;;;1.30;;
74421;SDS011;62856;51.446;8.360;2022-11-20T03:46:02;4.45;;;1.30;;
74421;SDS011;62856;51.446;8.360;2022-11-20T03:48:28;5.88;;;1.40;;
74421;SDS011;62856;51.446;8.360;2022-11-20T03:51:06;3.03;;;1.13;;
74421;SDS011;62856;51.446;8.360;2022-11-20T03:53:41;4.82;;;1.23;;
74421;SDS011;62856;51.446;8.360;2022-11-20T03:56:08;4.20;;;1.30;;
74421;SDS011;62856;51.446;8.360;2022-11-20T03:58:35;3.70;;;1.30;;
74421;SDS011;62856;51.446;8.360;2022-11-20T04:01:09;4.22;;;1.20;;
74421;SDS011;62856;51.446;8.360;2022-11-20T04:06:07;3.72;;;1.10;;
74421;SDS011;62856;51.446;8.360;2022-11-20T04:08:34;2.22;;;1.00;;
74421;SDS011;62856;51.446;8.360;2022-11-20T04:11:09;3.60;;;1.10;;
74421;SDS011;62856;51.446;8.360;2022-11-20T04:13:38;5.35;;;1.23;;
74421;SDS011;62856;51.446;8.360;2022-11-20T04:16:04;3.35;;;0.95;;
74421;SDS011;62856;51.446;8.360;2022-11-20T04:18:30;3.53;;;1.30;;
74421;SDS011;62856;51.446;8.360;2022-11-20T04:20:56;2.97;;;1.00;;
74421;SDS011;62856;51.446;8.360;2022-11-20T04:23:22;4.18;;;1.20;;
74421;SDS011;62856;51.446;8.360;2022-11-20T04:25:47;5.20;;;1.50;;
74421;SDS011;62856;51.446;8.360;2022-11-20T04:28:13;5.07;;;1.03;;
74421;SDS011;62856;51.446;8.360;2022-11-20T04:30:38;4.63;;;1.30;;
74421;SDS011;62856;51.446;8.360;2022-11-20T04:33:03;4.67;;;1.30;;
74421;SDS011;62856;51.446;8.360;2022-11-20T04:35:28;3.90;;;1.30;;
74421;SDS011;62856;51.446;8.360;2022-11-20T04:37:54;5.83;;;1.40;;
74421;SDS011;62856;51.446;8.360;2022-11-20T04:40:19;5.17;;;1.30;;
74421;SDS011;62856;51.446;8.360;2022-11-20T04:42:44;4.67;;;1.40;;
74421;SDS011;62856;51.446;8.360;2022-11-20T04:45:09;4.63;;;1.13;;
74421;SDS011;62856;51.446;8.360;2022-11-20T04:47:35;4.23;;;1.20;;
74421;SDS011;62856;51.446;8.360;2022-11-20T04:50:00;5.50;;;1.10;;
74421;SDS011;62856;51.446;8.360;2022-11-20T04:52:25;4.07;;;1.17;;
74421;SDS011;62856;51.446;8.360;2022-11-20T04:54:50;4.83;;;1.20;;
74421;SDS011;62856;51.446;8.360;2022-11-20T04:57:18;4.18;;;1.08;;
74421;SDS011;62856;51.446;8.360;2022-11-20T04:59:43;4.28;;;1.10;;
74421;SDS011;62856;51.446;8.360;2022-11-20T05:02:08;4.77;;;1.30;;
74421;SDS011;62856;51.446;8.360;2022-11-20T05:04:34;4.13;;;1.25;;
74421;SDS011;62856;51.446;8.360;2022-11-20T05:06:59;4.97;;;1.60;;
74421;SDS011;62856;51.446;8.360;2022-11-20T05:09:25;10.23;;;2.10;;
74421;SDS011;62856;51.446;8.360;2022-11-20T05:11:50;7.63;;;1.77;;
74421;SDS011;62856;51.446;8.360;2022-11-20T05:14:15;5.80;;;1.50;;
74421;SDS011;62856;51.446;8.360;2022-11-20T05:16:40;5.18;;;1.48;;
74421;SDS011;62856;51.446;8.360;2022-11-20T05:19:06;5.50;;;1.38;;
74421;SDS011;62856;51.446;8.360;2022-11-20T05:21:31;5.00;;;1.23;;
74421;SDS011;62856;51.446;8.360;2022-11-20T05:23:57;4.72;;;1.30;;
74421;SDS011;62856;51.446;8.360;2022-11-20T05:26:22;3.28;;;1.10;;
74421;SDS011;62856;51.446;8.360;2022-11-20T05:28:48;4.20;;;1.03;;
74421;SDS011;62856;51.446;8.360;2022-11-20T05:31:15;4.13;;;1.17;;
74421;SDS011;62856;51.446;8.360;2022-11-20T05:33:42;5.10;;;1.38;;
74421;SDS011;62856;51.446;8.360;2022-11-20T05:36:09;4.60;;;1.33;;
74421;SDS011;62856;51.446;8.360;2022-11-20T05:38:36;3.22;;;0.80;;
74421;SDS011;62856;51.446;8.360;2022-11-20T05:41:05;6.07;;;1.35;;
74421;SDS011;62856;51.446;8.360;2022-11-20T05:43:42;3.10;;;0.90;;
74421;SDS011;62856;51.446;8.360;2022-11-20T05:46:09;5.38;;;1.08;;
74421;SDS011;62856;51.446;8.360;2022-11-20T05:48:37;4.15;;;1.27;;
74421;SDS011;62856;51.446;8.360;2022-11-20T05:51:03;3.67;;;0.73;;
74421;SDS011;62856;51.446;8.360;2022-11-20T05:53:31;3.90;;;1.27;;
74421;SDS011;62856;51.446;8.360;2022-11-20T05:56:00;4.75;;;1.13;;
74421;SDS011;62856;51.446;8.360;2022-11-20T05:58:34;4.13;;;1.10;;
74421;SDS011;62856;51.446;8.360;2022-11-20T06:01:19;6.25;;;1.00;;
74421;SDS011;62856;51.446;8.360;2022-11-20T06:03:46;2.60;;;0.80;;
74421;SDS011;62856;51.446;8.360;2022-11-20T06:06:13;3.83;;;1.02;;
74421;SDS011;62856;51.446;8.360;2022-11-20T06:08:40;2.50;;;0.93;;
74421;SDS011;62856;51.446;8.360;2022-11-20T06:11:06;5.97;;;1.40;;
74421;SDS011;62856;51.446;8.360;2022-11-20T06:13:33;3.60;;;1.00;;
74421;SDS011;62856;51.446;8.360;2022-11-20T06:15:58;3.92;;;1.27;;
74421;SDS011;62856;51.446;8.360;2022-11-20T06:18:25;5.32;;;1.40;;
74421;SDS011;62856;51.446;8.360;2022-11-20T06:21:00;7.38;;;1.33;;
74421;SDS011;62856;51.446;8.360;2022-11-20T06:23:28;3.60;;;1.05;;
74421;SDS011;62856;51.446;8.360;2022-11-20T06:25:57;4.40;;;1.00;;
74421;SDS011;62856;51.446;8.360;2022-11-20T06:28:25;2.92;;;0.90;;
74421;SDS011;62856;51.446;8.360;2022-11-20T06:30:51;4.15;;;1.20;;
74421;SDS011;62856;51.446;8.360;2022-11-20T06:33:16;2.97;;;1.07;;
74421;SDS011;62856;51.446;8.360;2022-11-20T06:35:41;4.50;;;1.40;;
74421;SDS011;62856;51.446;8.360;2022-11-20T06:38:07;3.17;;;1.20;;
74421;SDS011;62856;51.446;8.360;2022-11-20T06:40:32;5.10;;;1.30;;
74421;SDS011;62856;51.446;8.360;2022-11-20T06:42:57;4.23;;;1.23;;
74421;SDS011;62856;51.446;8.360;2022-11-20T06:45:22;7.07;;;1.37;;
74421;SDS011;62856;51.446;8.360;2022-11-20T06:47:47;4.47;;;1.10;;
74421;SDS011;62856;51.446;8.360;2022-11-20T06:50:13;7.30;;;1.73;;
74421;SDS011;62856;51.446;8.360;2022-11-20T06:52:38;4.93;;;1.20;;
74421;SDS011;62856;51.446;8.360;2022-11-20T06:55:03;5.33;;;1.50;;
74421;SDS011;62856;51.446;8.360;2022-11-20T06:57:29;5.07;;;1.50;;
74421;SDS011;62856;51.446;8.360;2022-11-20T06:59:54;5.82;;;1.63;;
74421;SDS011;62856;51.446;8.360;2022-11-20T07:02:20;6.50;;;1.65;;
74421;SDS011;62856;51.446;8.360;2022-11-20T07:04:45;6.67;;;1.33;;
74421;SDS011;62856;51.446;8.360;2022-11-20T07:07:10;5.10;;;1.40;;
74421;SDS011;62856;51.446;8.360;2022-11-20T07:09:35;5.30;;;1.50;;
74421;SDS011;62856;51.446;8.360;2022-11-20T07:12:01;4.07;;;1.20;;
74421;SDS011;62856;51.446;8.360;2022-11-20T07:14:26;2.77;;;1.10;;
74421;SDS011;62856;51.446;8.360;2022-11-20T07:16:51;4.80;;;1.37;;
74421;SDS011;62856;51.446;8.360;2022-11-20T07:19:16;5.83;;;1.43;;
74421;SDS011;62856;51.446;8.360;2022-11-20T07:21:42;5.70;;;1.43;;
74421;SDS011;62856;51.446;8.360;2022-11-20T07:24:07;6.30;;;1.70;;
74421;SDS011;62856;51.446;8.360;2022-11-20T07:26:32;8.63;;;2.40;;
74421;SDS011;62856;51.446;8.360;2022-11-20T07:28:57;6.83;;;1.90;;
74421;SDS011;62856;51.446;8.360;2022-11-20T07:31:23;5.97;;;1.80;;
74421;SDS011;62856;51.446;8.360;2022-11-20T07:33:48;7.70;;;1.87;;
74421;SDS011;62856;51.446;8.360;2022-11-20T07:36:13;5.55;;;1.65;;
74421;SDS011;62856;51.446;8.360;2022-11-20T07:38:39;7.10;;;1.90;;
74421;SDS011;62856;51.446;8.360;2022-11-20T07:41:04;6.38;;;1.65;;
74421;SDS011;62856;51.446;8.360;2022-11-20T07:43:29;7.90;;;1.90;;
74421;SDS011;62856;51.446;8.360;2022-11-20T07:45:55;5.00;;;1.50;;
74421;SDS011;62856;51.446;8.360;2022-11-20T07:48:21;6.13;;;1.67;;
74421;SDS011;62856;51.446;8.360;2022-11-20T07:50:47;7.32;;;2.00;;
74421;SDS011;62856;51.446;8.360;2022-11-20T07:53:12;7.47;;;2.20;;
74421;SDS011;62856;51.446;8.360;2022-11-20T07:55:38;5.82;;;1.63;;
74421;SDS011;62856;51.446;8.360;2022-11-20T07:58:04;5.70;;;1.48;;
74421;SDS011;62856;51.446;8.360;2022-11-20T08:00:29;8.00;;;2.70;;
74421;SDS011;62856;51.446;8.360;2022-11-20T08:02:54;5.43;;;1.70;;
74421;SDS011;62856;51.446;8.360;2022-11-20T08:05:20;7.10;;;1.97;;
74421;SDS011;62856;51.446;8.360;2022-11-20T08:07:45;5.97;;;1.80;;
74421;SDS011;62856;51.446;8.360;2022-11-20T08:10:11;8.00;;;2.28;;
74421;SDS011;62856;51.446;8.360;2022-11-20T08:12:43;6.80;;;2.05;;
74421;SDS011;62856;51.446;8.360;2022-11-20T08:15:30;6.60;;;1.73;;
74421;SDS011;62856;51.446;8.360;2022-11-20T08:18:06;7.03;;;2.40;;
74421;SDS011;62856;51.446;8.360;2022-11-20T08:20:33;8.25;;;2.88;;
74421;SDS011;62856;51.446;8.360;2022-11-20T08:23:00;7.93;;;2.83;;
74421;SDS011;62856;51.446;8.360;2022-11-20T08:25:27;8.70;;;2.58;;
74421;SDS011;62856;51.446;8.360;2022-11-20T08:27:53;8.32;;;2.63;;
74421;SDS011;62856;51.446;8.360;2022-11-20T08:30:18;7.80;;;2.07;;
74421;SDS011;62856;51.446;8.360;2022-11-20T08:32:43;9.77;;;3.35;;
74421;SDS011;62856;51.446;8.360;2022-11-20T08:35:09;9.17;;;3.07;;
74421;SDS011;62856;51.446;8.360;2022-11-20T08:37:34;9.70;;;3.00;;
74421;SDS011;62856;51.446;8.360;2022-11-20T08:39:59;10.45;;;3.55;;
74421;SDS011;62856;51.446;8.360;2022-11-20T08:42:25;8.53;;;3.50;;
74421;SDS011;62856;51.446;8.360;2022-11-20T08:44:50;8.80;;;2.90;;
74421;SDS011;62856;51.446;8.360;2022-11-20T08:47:15;9.77;;;3.00;;
74421;SDS011;62856;51.446;8.360;2022-11-20T08:49:40;8.67;;;2.47;;
74421;SDS011;62856;51.446;8.360;2022-11-20T08:52:05;8.63;;;2.37;;
74421;SDS011;62856;51.446;8.360;2022-11-20T08:54:31;8.93;;;2.67;;
74421;SDS011;62856;51.446;8.360;2022-11-20T08:56:56;8.20;;;2.80;;
74421;SDS011;62856;51.446;8.360;2022-11-20T08:59:21;9.27;;;2.90;;
74421;SDS011;62856;51.446;8.360;2022-11-20T09:01:47;7.13;;;2.20;;
74421;SDS011;62856;51.446;8.360;2022-11-20T09:04:12;7.43;;;2.38;;
74421;SDS011;62856;51.446;8.360;2022-11-20T09:06:39;8.32;;;2.42;;
74421;SDS011;62856;51.446;8.360;2022-11-20T09:09:04;9.30;;;2.38;;
74421;SDS011;62856;51.446;8.360;2022-11-20T09:11:30;7.78;;;2.00;;
74421;SDS011;62856;51.446;8.360;2022-11-20T09:13:56;5.75;;;1.85;;
74421;SDS011;62856;51.446;8.360;2022-11-20T09:16:21;6.07;;;1.60;;
74421;SDS011;62856;51.446;8.360;2022-11-20T09:18:49;5.53;;;1.67;;
74421;SDS011;62856;51.446;8.360;2022-11-20T09:21:15;7.55;;;1.85;;
74421;SDS011;62856;51.446;8.360;2022-11-20T09:23:40;7.07;;;1.73;;
74421;SDS011;62856;51.446;8.360;2022-11-20T09:26:10;7.10;;;2.23;;
74421;SDS011;62856;51.446;8.360;2022-11-20T09:28:38;6.05;;;2.00;;
74421;SDS011;62856;51.446;8.360;2022-11-20T09:31:07;6.15;;;1.83;;
74421;SDS011;62856;51.446;8.360;2022-11-20T09:33:33;7.53;;;1.90;;
74421;SDS011;62856;51.446;8.360;2022-11-20T09:36:00;7.05;;;1.92;;
74421;SDS011;62856;51.446;8.360;2022-11-20T09:38:25;6.65;;;1.83;;
74421;SDS011;62856;51.446;8.360;2022-11-20T09:43:31;6.40;;;1.85;;
74421;SDS011;62856;51.446;8.360;2022-11-20T09:46:49;7.25;;;2.10;;
74421;SDS011;62856;51.446;8.360;2022-11-20T09:51:46;4.70;;;1.60;;
74421;SDS011;62856;51.446;8.360;2022-11-20T09:56:43;7.72;;;2.45;;
74421;SDS011;62856;51.446;8.360;2022-11-20T09:59:20;9.43;;;2.33;;
74421;SDS011;62856;51.446;8.360;2022-11-20T10:01:54;5.22;;;1.83;;
74421;SDS011;62856;51.446;8.360;2022-11-20T10:04:20;6.38;;;2.05;;
74421;SDS011;62856;51.446;8.360;2022-11-20T10:09:51;6.50;;;1.80;;
74421;SDS011;62856;51.446;8.360;2022-11-20T10:18:08;6.00;;;1.80;;
74421;SDS011;62856;51.446;8.360;2022-11-20T10:27:30;6.25;;;1.95;;
74421;SDS011;62856;51.446;8.360;2022-11-20T10:30:02;5.55;;;1.65;;
74421;SDS011;62856;51.446;8.360;2022-11-20T10:32:35;6.53;;;1.85;;
74421;SDS011;62856;51.446;8.360;2022-11-20T10:35:14;6.00;;;1.77;;
74421;SDS011;62856;51.446;8.360;2022-11-20T10:37:46;6.03;;;1.52;;
74421;SDS011;62856;51.446;8.360;2022-11-20T10:40:27;6.82;;;1.67;;
74421;SDS011;62856;51.446;8.360;2022-11-20T10:43:23;5.78;;;1.55;;
74421;SDS011;62856;51.446;8.360;2022-11-20T10:46:01;7.60;;;1.90;;
74421;SDS011;62856;51.446;8.360;2022-11-20T10:48:30;6.63;;;1.98;;
74421;SDS011;62856;51.446;8.360;2022-11-20T10:51:12;6.43;;;1.80;;
74421;SDS011;62856;51.446;8.360;2022-11-20T10:56:40;5.85;;;1.83;;
74421;SDS011;62856;51.446;8.360;2022-11-20T11:02:19;5.57;;;1.80;;
74421;SDS011;62856;51.446;8.360;2022-11-20T11:04:46;7.30;;;1.90;;
74421;SDS011;62856;51.446;8.360;2022-11-20T11:09:41;6.93;;;1.87;;
74421;SDS011;62856;51.446;8.360;2022-11-20T11:12:09;5.82;;;1.92;;
74421;SDS011;62856;51.446;8.360;2022-11-20T11:14:45;5.90;;;1.73;;
74421;SDS011;62856;51.446;8.360;2022-11-20T11:17:29;6.45;;;1.73;;
74421;SDS011;62856;51.446;8.360;2022-11-20T11:22:24;9.73;;;2.17;;
74421;SDS011;62856;51.446;8.360;2022-11-20T11:24:52;6.55;;;1.85;;
74421;SDS011;62856;51.446;8.360;2022-11-20T11:27:18;6.60;;;1.88;;
74421;SDS011;62856;51.446;8.360;2022-11-20T11:29:43;7.60;;;1.98;;
74421;SDS011;62856;51.446;8.360;2022-11-20T11:32:12;6.03;;;1.92;;
74421;SDS011;62856;51.446;8.360;2022-11-20T11:34:58;7.15;;;2.03;;
74421;SDS011;62856;51.446;8.360;2022-11-20T11:37:24;7.95;;;1.77;;
74421;SDS011;62856;51.446;8.360;2022-11-20T11:39:57;7.00;;;1.92;;
74421;SDS011;62856;51.446;8.360;2022-11-20T11:42:22;9.00;;;2.22;;
74421;SDS011;62856;51.446;8.360;2022-11-20T11:44:48;6.60;;;2.00;;
74421;SDS011;62856;51.446;8.360;2022-11-20T11:47:43;7.47;;;1.90;;
74421;SDS011;62856;51.446;8.360;2022-11-20T11:52:38;6.60;;;2.10;;
74421;SDS011;62856;51.446;8.360;2022-11-20T11:55:09;5.82;;;1.95;;
74421;SDS011;62856;51.446;8.360;2022-11-20T12:01:01;8.15;;;2.33;;
74421;SDS011;62856;51.446;8.360;2022-11-20T12:03:36;6.05;;;1.52;;
74421;SDS011;62856;51.446;8.360;2022-11-20T12:06:05;6.28;;;2.03;;
74421;SDS011;62856;51.446;8.360;2022-11-20T12:16:44;8.10;;;1.98;;
74421;SDS011;62856;51.446;8.360;2022-11-20T12:19:11;8.98;;;1.90;;
74421;SDS011;62856;51.446;8.360;2022-11-20T12:27:02;7.25;;;2.20;;
74421;SDS011;62856;51.446;8.360;2022-11-20T12:35:00;7.35;;;2.10;;
74421;SDS011;62856;51.446;8.360;2022-11-20T12:46:05;6.22;;;1.83;;
74421;SDS011;62856;51.446;8.360;2022-11-20T12:51:37;6.90;;;2.03;;
74421;SDS011;62856;51.446;8.360;2022-11-20T12:59:49;10.05;;;2.67;;
74421;SDS011;62856;51.446;8.360;2022-11-20T13:05:18;8.75;;;2.13;;
74421;SDS011;62856;51.446;8.360;2022-11-20T13:07:47;8.38;;;2.45;;
74421;SDS011;62856;51.446;8.360;2022-11-20T13:10:38;8.40;;;2.25;;
74421;SDS011;62856;51.446;8.360;2022-11-20T13:15:42;6.15;;;1.83;;
74421;SDS011;62856;51.446;8.360;2022-11-20T13:18:16;9.30;;;2.78;;
74421;SDS011;62856;51.446;8.360;2022-11-20T13:20:43;9.15;;;2.55;;
74421;SDS011;62856;51.446;8.360;2022-11-20T13:23:10;6.07;;;1.90;;
74421;SDS011;62856;51.446;8.360;2022-11-20T13:25:39;10.27;;;2.40;;
74421;SDS011;62856;51.446;8.360;2022-11-20T13:30:36;9.43;;;2.33;;
74421;SDS011;62856;51.446;8.360;2022-11-20T13:33:23;7.90;;;2.83;;
74421;SDS011;62856;51.446;8.360;2022-11-20T13:38:21;8.02;;;2.60;;
74421;SDS011;62856;51.446;8.360;2022-11-20T13:40:51;10.60;;;2.70;;
74421;SDS011;62856;51.446;8.360;2022-11-20T13:46:01;9.85;;;2.83;;
74421;SDS011;62856;51.446;8.360;2022-11-20T13:48:32;8.07;;;2.60;;
74421;SDS011;62856;51.446;8.360;2022-11-20T13:59:28;9.57;;;3.05;;
74421;SDS011;62856;51.446;8.360;2022-11-20T14:02:08;12.75;;;3.13;;
74421;SDS011;62856;51.446;8.360;2022-11-20T14:04:38;9.60;;;3.08;;
74421;SDS011;62856;51.446;8.360;2022-11-20T14:07:11;10.57;;;3.50;;
74421;SDS011;62856;51.446;8.360;2022-11-20T14:09:37;10.25;;;3.15;;
74421;SDS011;62856;51.446;8.360;2022-11-20T14:12:02;9.95;;;2.88;;
74421;SDS011;62856;51.446;8.360;2022-11-20T14:14:46;9.30;;;3.05;;
74421;SDS011;62856;51.446;8.360;2022-11-20T14:17:46;8.27;;;2.33;;
74421;SDS011;62856;51.446;8.360;2022-11-20T14:20:05;9.52;;;2.58;;
74421;SDS011;62856;51.446;8.360;2022-11-20T14:22:36;9.32;;;2.88;;
74421;SDS011;62856;51.446;8.360;2022-11-20T14:27:43;8.73;;;2.65;;
74421;SDS011;62856;51.446;8.360;2022-11-20T14:32:43;10.18;;;3.03;;
74421;SDS011;62856;51.446;8.360;2022-11-20T14:35:13;8.82;;;2.80;;
74421;SDS011;62856;51.446;8.360;2022-11-20T14:37:44;8.73;;;2.80;;
74421;SDS011;62856;51.446;8.360;2022-11-20T14:42:47;9.10;;;2.92;;
74421;SDS011;62856;51.446;8.360;2022-11-20T14:45:12;9.48;;;2.70;;
74421;SDS011;62856;51.446;8.360;2022-11-20T14:47:39;8.40;;;2.63;;
74421;SDS011;62856;51.446;8.360;2022-11-20T14:50:07;9.48;;;2.85;;
74421;SDS011;62856;51.446;8.360;2022-11-20T14:52:39;8.65;;;2.15;;
74421;SDS011;62856;51.446;8.360;2022-11-20T14:55:24;7.28;;;2.20;;
74421;SDS011;62856;51.446;8.360;2022-11-20T14:58:23;8.68;;;3.15;;
74421;SDS011;62856;51.446;8.360;2022-11-20T15:01:00;9.88;;;3.25;;
74421;SDS011;62856;51.446;8.360;2022-11-20T15:03:35;9.85;;;3.13;;
74421;SDS011;62856;51.446;8.360;2022-11-20T15:06:05;10.05;;;3.38;;
74421;SDS011;62856;51.446;8.360;2022-11-20T15:08:32;11.43;;;3.28;;
74421;SDS011;62856;51.446;8.360;2022-11-20T15:10:57;11.02;;;3.40;;
74421;SDS011;62856;51.446;8.360;2022-11-20T15:13:31;9.27;;;3.67;;
74421;SDS011;62856;51.446;8.360;2022-11-20T15:16:02;10.27;;;3.60;;
74421;SDS011;62856;51.446;8.360;2022-11-20T15:21:16;10.00;;;3.17;;
74421;SDS011;62856;51.446;8.360;2022-11-20T15:23:43;10.38;;;3.60;;
74421;SDS011;62856;51.446;8.360;2022-11-20T15:26:09;11.30;;;3.33;;
74421;SDS011;62856;51.446;8.360;2022-11-20T15:28:39;10.82;;;3.45;;
74421;SDS011;62856;51.446;8.360;2022-11-20T15:31:09;9.98;;;3.40;;
74421;SDS011;62856;51.446;8.360;2022-11-20T15:33:36;9.50;;;3.35;;
74421;SDS011;62856;51.446;8.360;2022-11-20T15:36:02;11.25;;;3.70;;
74421;SDS011;62856;51.446;8.360;2022-11-20T15:38:27;10.13;;;3.22;;
74421;SDS011;62856;51.446;8.360;2022-11-20T15:40:53;8.87;;;2.80;;
74421;SDS011;62856;51.446;8.360;2022-11-20T15:43:18;10.73;;;3.60;;
74421;SDS011;62856;51.446;8.360;2022-11-20T15:45:47;9.13;;;2.47;;
74421;SDS011;62856;51.446;8.360;2022-11-20T15:48:18;9.35;;;3.17;;
74421;SDS011;62856;51.446;8.360;2022-11-20T15:53:41;8.52;;;3.15;;
74421;SDS011;62856;51.446;8.360;2022-11-20T15:56:13;10.68;;;4.40;;
74421;SDS011;62856;51.446;8.360;2022-11-20T15:58:39;9.35;;;2.80;;
74421;SDS011;62856;51.446;8.360;2022-11-20T16:01:05;11.77;;;3.63;;
74421;SDS011;62856;51.446;8.360;2022-11-20T16:03:38;10.10;;;3.50;;
74421;SDS011;62856;51.446;8.360;2022-11-20T16:06:04;9.60;;;3.50;;
74421;SDS011;62856;51.446;8.360;2022-11-20T16:08:29;10.13;;;3.28;;
74421;SDS011;62856;51.446;8.360;2022-11-20T16:10:54;15.10;;;5.90;;
74421;SDS011;62856;51.446;8.360;2022-11-20T16:13:20;11.33;;;4.33;;
74421;SDS011;62856;51.446;8.360;2022-11-20T16:16:05;11.38;;;3.47;;
74421;SDS011;62856;51.446;8.360;2022-11-20T16:18:34;12.18;;;3.95;;
74421;SDS011;62856;51.446;8.360;2022-11-20T16:20:59;14.43;;;5.18;;
74421;SDS011;62856;51.446;8.360;2022-11-20T16:23:25;13.57;;;4.85;;
74421;SDS011;62856;51.446;8.360;2022-11-20T16:25:50;14.00;;;4.95;;
74421;SDS011;62856;51.446;8.360;2022-11-20T16:28:16;11.48;;;4.30;;
74421;SDS011;62856;51.446;8.360;2022-11-20T16:30:42;11.32;;;4.25;;
74421;SDS011;62856;51.446;8.360;2022-11-20T16:33:11;12.03;;;3.97;;
74421;SDS011;62856;51.446;8.360;2022-11-20T16:35:38;10.48;;;4.10;;
74421;SDS011;62856;51.446;8.360;2022-11-20T16:38:03;11.15;;;3.83;;
74421;SDS011;62856;51.446;8.360;2022-11-20T16:40:28;9.68;;;3.15;;
74421;SDS011;62856;51.446;8.360;2022-11-20T16:42:54;10.65;;;3.13;;
74421;SDS011;62856;51.446;8.360;2022-11-20T16:45:19;10.90;;;3.60;;
74421;SDS011;62856;51.446;8.360;2022-11-20T16:47:45;11.38;;;3.08;;
74421;SDS011;62856;51.446;8.360;2022-11-20T16:50:10;11.77;;;4.75;;
74421;SDS011;62856;51.446;8.360;2022-11-20T16:52:36;10.23;;;3.35;;